Time;durP1;ratioP1;P1;durP2;ratioP2;P2;SDS_P1;SDS_P2;PMS_P1;PMS_P2;Temp;Humidity;BMP_temperature;BMP_pressure;BME280_temperature;BME280_humidity;BME280_pressure;Samples;Min_cycle;Max_cycle;Signal;HPM_P1;HPM_P2
2024/03/17 00:01:36;;;;;;;11.70;8.70;;;;;;;;;;109655;1251;59772;-77
2024/03/17 00:04:03;;;;;;;11.70;9.10;;;;;;;;;;109679;1250;59633;-77
2024/03/17 00:06:29;;;;;;;12.20;9.10;;;;;;;;;;109239;1251;59948;-76
2024/03/17 00:08:56;;;;;;;15.70;11.50;;;;;;;;;;106610;1252;62183;-77
2024/03/17 00:11:22;;;;;;;13.30;11.00;;;;;;;;;;106603;1251;62150;-77
2024/03/17 00:13:48;;;;;;;15.20;11.10;;;;;;;;;;106947;1251;62162;-77
2024/03/17 00:16:18;;;;;;;14.70;10.20;;;;;;;;;;109667;1251;59691;-76
2024/03/17 00:18:46;;;;;;;14.90;10.90;;;;;;;;;;107393;1251;61940;-78
2024/03/17 00:21:13;;;;;;;14.20;9.10;;;;;;;;;;109690;1250;59660;-77
2024/03/17 00:23:39;;;;;;;13.30;9.00;;;;;;;;;;109656;1251;61484;-79
2024/03/17 00:26:06;;;;;;;10.70;8.40;;;;;;;;;;109671;1250;59750;-78
2024/03/17 00:28:32;;;;;;;10.90;8.30;;;;;;;;;;109680;1251;59762;-77
2024/03/17 00:30:58;;;;;;;12.70;8.20;;;;;;;;;;109668;1251;59784;-76
2024/03/17 00:33:24;;;;;;;10.90;7.80;;;;;;;;;;109667;1250;60054;-77
2024/03/17 00:35:51;;;;;;;9.60;7.10;;;;;;;;;;109676;1251;60099;-77
2024/03/17 00:38:17;;;;;;;10.90;7.80;;;;;;;;;;109685;1250;59870;-77
2024/03/17 00:40:45;;;;;;;7.50;6.30;;;;;;;;;;109633;1251;59810;-76
2024/03/17 00:43:14;;;;;;;7.90;5.30;;;;;;;;;;109650;1251;60044;-77
2024/03/17 00:45:40;;;;;;;9.10;5.60;;;;;;;;;;109706;1250;59690;-77
2024/03/17 00:48:06;;;;;;;7.10;4.80;;;;;;;;;;108607;1249;62034;-77
2024/03/17 00:50:33;;;;;;;5.90;4.60;;;;;;;;;;106617;1252;63172;-77
2024/03/17 00:53:00;;;;;;;7.60;4.70;;;;;;;;;;106558;1254;62150;-77
2024/03/17 00:55:26;;;;;;;5.60;3.70;;;;;;;;;;106581;1251;62074;-77
2024/03/17 00:57:54;;;;;;;6.30;3.70;;;;;;;;;;106597;1254;62057;-77
2024/03/17 01:00:20;;;;;;;7.00;4.10;;;;;;;;;;106642;1254;63864;-79
2024/03/17 01:02:46;;;;;;;5.40;4.20;;;;;;;;;;106617;1254;62093;-78
2024/03/17 01:05:13;;;;;;;5.30;3.40;;;;;;;;;;106619;1253;62058;-79
2024/03/17 01:07:39;;;;;;;6.30;4.20;;;;;;;;;;106610;1254;62070;-79
2024/03/17 01:10:08;;;;;;;4.90;3.50;;;;;;;;;;106590;1254;62154;-79
2024/03/17 01:12:34;;;;;;;6.40;4.10;;;;;;;;;;106559;1251;62689;-79
2024/03/17 01:15:03;;;;;;;6.50;4.60;;;;;;;;;;106604;1251;62155;-76
2024/03/17 01:17:30;;;;;;;5.90;3.70;;;;;;;;;;106554;1251;62071;-77
2024/03/17 01:19:56;;;;;;;6.40;4.40;;;;;;;;;;106583;1251;62173;-76
2024/03/17 01:22:22;;;;;;;9.20;6.10;;;;;;;;;;106599;1251;63162;-76
2024/03/17 01:24:48;;;;;;;10.00;6.40;;;;;;;;;;106557;1251;62156;-76
2024/03/17 01:27:16;;;;;;;9.90;7.00;;;;;;;;;;106680;1251;62178;-76
2024/03/17 01:29:43;;;;;;;9.00;6.80;;;;;;;;;;109659;1250;60123;-76
2024/03/17 01:32:10;;;;;;;11.00;6.30;;;;;;;;;;109659;1250;59871;-77
2024/03/17 01:34:37;;;;;;;7.70;6.00;;;;;;;;;;109632;1251;59937;-77
2024/03/17 01:37:04;;;;;;;9.00;6.40;;;;;;;;;;109625;1249;61592;-77
2024/03/17 01:39:30;;;;;;;9.40;6.80;;;;;;;;;;109646;1250;59659;-77
2024/03/17 01:41:57;;;;;;;9.80;6.60;;;;;;;;;;109632;1250;60819;-76
2024/03/17 01:44:27;;;;;;;10.80;6.20;;;;;;;;;;109680;1249;59757;-77
2024/03/17 01:46:54;;;;;;;9.70;6.90;;;;;;;;;;109332;1249;59702;-77
2024/03/17 01:49:21;;;;;;;10.00;7.40;;;;;;;;;;106646;1251;64296;-75
2024/03/17 01:51:48;;;;;;;11.00;7.80;;;;;;;;;;106641;1254;62168;-76
2024/03/17 01:54:14;;;;;;;13.70;8.80;;;;;;;;;;106622;1251;62141;-76
2024/03/17 01:56:41;;;;;;;10.80;7.20;;;;;;;;;;106584;1251;62053;-76
2024/03/17 01:59:07;;;;;;;13.60;7.50;;;;;;;;;;106603;1250;61966;-76
2024/03/17 02:01:33;;;;;;;10.00;6.70;;;;;;;;;;106588;1254;62419;-76
2024/03/17 02:03:59;;;;;;;13.10;8.30;;;;;;;;;;106609;1251;62160;-76
2024/03/17 02:06:26;;;;;;;13.70;7.80;;;;;;;;;;106588;1250;62095;-77
2024/03/17 02:08:53;;;;;;;11.20;7.90;;;;;;;;;;106589;1250;62147;-77
2024/03/17 02:11:26;;;;;;;11.20;5.90;;;;;;;;;;106608;1250;62025;-77
2024/03/17 02:13:53;;;;;;;10.70;6.30;;;;;;;;;;106613;1249;62724;-76
2024/03/17 02:16:20;;;;;;;15.90;7.70;;;;;;;;;;109604;1250;59644;-77
2024/03/17 02:18:46;;;;;;;10.60;7.00;;;;;;;;;;109630;1249;60063;-77
2024/03/17 02:21:12;;;;;;;13.40;7.20;;;;;;;;;;109662;1249;59708;-77
2024/03/17 02:23:39;;;;;;;17.40;6.80;;;;;;;;;;109659;1249;59629;-77
2024/03/17 02:26:05;;;;;;;9.40;5.40;;;;;;;;;;109648;1250;59714;-77
2024/03/17 02:28:42;;;;;;;11.60;6.30;;;;;;;;;;107016;1254;62029;-77
2024/03/17 02:31:08;;;;;;;10.50;5.80;;;;;;;;;;106576;1254;61984;-76
2024/03/17 02:33:34;;;;;;;12.50;5.30;;;;;;;;;;106598;1250;62028;-79
2024/03/17 02:36:00;;;;;;;10.00;6.10;;;;;;;;;;106533;1252;62153;-79
2024/03/17 02:41:12;;;;;;;9.50;5.00;;;;;;;;;;106574;1250;61984;-79
2024/03/17 02:43:38;;;;;;;11.10;5.70;;;;;;;;;;106558;1250;62157;-78
2024/03/17 02:46:04;;;;;;;10.90;6.60;;;;;;;;;;106641;1250;62057;-78
2024/03/17 02:48:31;;;;;;;12.00;6.40;;;;;;;;;;106721;1251;62082;-80
2024/03/17 02:50:57;;;;;;;14.20;6.90;;;;;;;;;;106679;1251;62515;-80
2024/03/17 02:53:24;;;;;;;21.20;9.50;;;;;;;;;;106594;1250;62144;-78
2024/03/17 02:55:50;;;;;;;13.30;6.20;;;;;;;;;;106607;1250;62035;-77
2024/03/17 02:58:16;;;;;;;19.50;9.10;;;;;;;;;;106569;1254;62136;-77
2024/03/17 03:00:42;;;;;;;15.00;7.20;;;;;;;;;;106549;1254;61968;-77
2024/03/17 03:03:09;;;;;;;13.60;6.60;;;;;;;;;;106634;1253;62126;-77
2024/03/17 03:05:36;;;;;;;13.30;7.60;;;;;;;;;;106574;1249;62131;-76
2024/03/17 03:08:04;;;;;;;19.50;9.50;;;;;;;;;;106610;1250;62048;-78
2024/03/17 03:10:30;;;;;;;13.20;6.30;;;;;;;;;;106606;1250;62095;-77
2024/03/17 03:12:56;;;;;;;13.40;7.20;;;;;;;;;;106649;1250;62029;-77
2024/03/17 03:15:23;;;;;;;23.00;8.90;;;;;;;;;;107885;1250;62141;-77
2024/03/17 03:17:49;;;;;;;10.50;7.50;;;;;;;;;;106630;1251;62147;-78
2024/03/17 03:20:15;;;;;;;17.50;7.10;;;;;;;;;;106636;1251;62137;-77
2024/03/17 03:22:41;;;;;;;12.20;6.00;;;;;;;;;;106612;1250;62127;-77
2024/03/17 03:25:08;;;;;;;11.20;5.50;;;;;;;;;;106621;1250;62141;-79
2024/03/17 03:27:34;;;;;;;10.80;5.70;;;;;;;;;;106591;1251;63946;-77
2024/03/17 03:30:00;;;;;;;13.00;5.90;;;;;;;;;;106636;1249;62185;-78
2024/03/17 03:32:27;;;;;;;12.10;7.40;;;;;;;;;;106663;1250;62419;-77
2024/03/17 03:34:53;;;;;;;12.80;9.00;;;;;;;;;;106669;1250;62147;-78
2024/03/17 03:37:19;;;;;;;16.10;6.60;;;;;;;;;;107297;1250;60618;-77
2024/03/17 03:39:46;;;;;;;15.80;10.50;;;;;;;;;;106727;1254;62138;-77
2024/03/17 03:42:12;;;;;;;21.50;11.40;;;;;;;;;;106721;1254;62090;-78
2024/03/17 03:44:38;;;;;;;17.00;10.00;;;;;;;;;;107074;1249;62036;-77
2024/03/17 03:47:05;;;;;;;21.40;10.90;;;;;;;;;;106632;1250;62217;-77
2024/03/17 03:49:31;;;;;;;14.80;9.30;;;;;;;;;;106649;1251;62087;-77
2024/03/17 03:51:57;;;;;;;16.30;10.10;;;;;;;;;;106620;1250;62075;-76
2024/03/17 03:54:23;;;;;;;16.80;8.10;;;;;;;;;;106577;1254;62250;-76
2024/03/17 03:56:50;;;;;;;13.00;7.10;;;;;;;;;;106629;1250;62090;-77
2024/03/17 03:59:16;;;;;;;18.90;6.90;;;;;;;;;;106600;1250;61988;-77
2024/03/17 04:01:42;;;;;;;15.60;7.10;;;;;;;;;;106570;1250;62152;-76
2024/03/17 04:04:09;;;;;;;11.10;7.40;;;;;;;;;;109645;1250;60143;-77
2024/03/17 04:06:37;;;;;;;18.80;9.60;;;;;;;;;;109648;1249;59939;-77
2024/03/17 04:09:05;;;;;;;19.60;11.20;;;;;;;;;;109647;1249;59944;-77
2024/03/17 04:11:35;;;;;;;16.40;8.10;;;;;;;;;;109677;1249;59724;-77
2024/03/17 04:14:02;;;;;;;24.60;13.40;;;;;;;;;;109648;1249;61521;-77
2024/03/17 04:16:31;;;;;;;23.60;13.50;;;;;;;;;;108519;1253;59734;-77
2024/03/17 04:18:57;;;;;;;18.90;12.70;;;;;;;;;;106590;1250;63865;-77
2024/03/17 04:21:23;;;;;;;16.00;9.20;;;;;;;;;;106567;1254;62163;-77
2024/03/17 04:23:49;;;;;;;24.70;10.60;;;;;;;;;;106570;1250;62033;-77
2024/03/17 04:26:15;;;;;;;15.40;9.00;;;;;;;;;;106610;1249;62253;-77
2024/03/17 04:28:42;;;;;;;19.70;10.80;;;;;;;;;;107204;1251;62093;-78
2024/03/17 04:31:11;;;;;;;19.90;10.20;;;;;;;;;;109643;1249;60338;-77
2024/03/17 04:33:37;;;;;;;18.40;9.40;;;;;;;;;;109653;1250;59993;-76
2024/03/17 04:36:03;;;;;;;29.60;10.30;;;;;;;;;;109631;1249;59729;-77
2024/03/17 04:38:29;;;;;;;21.30;8.20;;;;;;;;;;109666;1249;59696;-76
2024/03/17 04:41:05;;;;;;;14.50;5.70;;;;;;;;;;109671;1249;59810;-77
2024/03/17 04:43:32;;;;;;;16.30;7.50;;;;;;;;;;108031;1250;62102;-76
2024/03/17 04:46:03;;;;;;;15.30;7.30;;;;;;;;;;106570;1250;62128;-77
2024/03/17 04:48:30;;;;;;;16.20;7.80;;;;;;;;;;106589;1249;62013;-77
2024/03/17 04:50:57;;;;;;;12.30;7.00;;;;;;;;;;108863;1250;61615;-77
2024/03/17 04:53:24;;;;;;;11.70;5.50;;;;;;;;;;109656;1249;59707;-77
2024/03/17 04:55:58;;;;;;;15.10;5.80;;;;;;;;;;109670;1249;59732;-78
2024/03/17 04:58:25;;;;;;;11.50;5.30;;;;;;;;;;108444;1249;62077;-77
2024/03/17 05:00:51;;;;;;;10.00;4.90;;;;;;;;;;106578;1249;62031;-76
2024/03/17 05:03:17;;;;;;;12.60;5.50;;;;;;;;;;106568;1250;62133;-77
2024/03/17 05:05:43;;;;;;;8.90;5.10;;;;;;;;;;106581;1253;62062;-77
2024/03/17 05:08:09;;;;;;;17.00;6.30;;;;;;;;;;106507;1251;61959;-76
2024/03/17 05:10:36;;;;;;;11.10;5.50;;;;;;;;;;106525;1250;62407;-77
2024/03/17 05:13:02;;;;;;;19.00;5.60;;;;;;;;;;106534;1253;62148;-76
2024/03/17 05:15:28;;;;;;;8.60;5.30;;;;;;;;;;106585;1253;62474;-76
2024/03/17 05:17:55;;;;;;;15.80;5.60;;;;;;;;;;106561;1254;62011;-77
2024/03/17 05:20:21;;;;;;;17.60;7.90;;;;;;;;;;106547;1251;62069;-79
2024/03/17 05:22:49;;;;;;;14.30;5.80;;;;;;;;;;106510;1254;62172;-78
2024/03/17 05:25:15;;;;;;;12.80;4.60;;;;;;;;;;106551;1250;60988;-79
2024/03/17 05:27:41;;;;;;;14.00;4.80;;;;;;;;;;106596;1250;60033;-79
2024/03/17 05:30:08;;;;;;;11.60;4.00;;;;;;;;;;106592;1253;62054;-79
2024/03/17 05:32:34;;;;;;;7.90;4.00;;;;;;;;;;106576;1250;62032;-78
2024/03/17 05:35:01;;;;;;;10.90;3.70;;;;;;;;;;106545;1249;63247;-78
2024/03/17 05:37:27;;;;;;;8.30;4.20;;;;;;;;;;106525;1250;62150;-79
2024/03/17 05:39:54;;;;;;;12.10;5.40;;;;;;;;;;106573;1251;62183;-79
2024/03/17 05:42:22;;;;;;;11.90;3.80;;;;;;;;;;106546;1250;62086;-79
2024/03/17 05:44:52;;;;;;;19.60;5.10;;;;;;;;;;108713;1249;62012;-78
2024/03/17 05:47:19;;;;;;;13.20;4.00;;;;;;;;;;109632;1249;59640;-77
2024/03/17 05:49:45;;;;;;;7.70;3.80;;;;;;;;;;107510;1249;62063;-76
2024/03/17 05:52:12;;;;;;;12.30;3.80;;;;;;;;;;106557;1250;62157;-77
2024/03/17 05:54:38;;;;;;;16.30;4.30;;;;;;;;;;106568;1250;62091;-76
2024/03/17 05:57:04;;;;;;;8.70;3.80;;;;;;;;;;106558;1249;62164;-77
2024/03/17 05:59:34;;;;;;;10.30;5.10;;;;;;;;;;106565;1254;62063;-76
2024/03/17 06:02:00;;;;;;;11.40;4.40;;;;;;;;;;106563;1250;62016;-76
2024/03/17 06:04:27;;;;;;;13.00;5.20;;;;;;;;;;106624;1250;63967;-77
2024/03/17 06:06:53;;;;;;;12.30;5.20;;;;;;;;;;106589;1253;62888;-78
2024/03/17 06:09:19;;;;;;;12.10;6.10;;;;;;;;;;107209;1254;62163;-79
2024/03/17 06:11:46;;;;;;;11.80;6.40;;;;;;;;;;106419;1254;270124;-77
2024/03/17 06:14:13;;;;;;;12.20;7.30;;;;;;;;;;106578;1254;62125;-76
2024/03/17 06:16:39;;;;;;;13.60;7.30;;;;;;;;;;106559;1250;63169;-77
2024/03/17 06:19:07;;;;;;;9.30;5.80;;;;;;;;;;106553;1251;62042;-76
2024/03/17 06:21:33;;;;;;;11.30;4.70;;;;;;;;;;106591;1250;62156;-76
2024/03/17 06:23:59;;;;;;;13.00;5.50;;;;;;;;;;106569;1251;62132;-76
2024/03/17 06:26:26;;;;;;;9.10;4.20;;;;;;;;;;106568;1251;62140;-77
2024/03/17 06:28:53;;;;;;;9.80;3.90;;;;;;;;;;106558;1249;62068;-76
2024/03/17 06:31:19;;;;;;;14.40;5.30;;;;;;;;;;106518;1253;62071;-76
2024/03/17 06:33:45;;;;;;;14.90;5.80;;;;;;;;;;106580;1250;62154;-77
2024/03/17 06:36:11;;;;;;;9.20;5.50;;;;;;;;;;106545;1251;62172;-77
2024/03/17 06:38:38;;;;;;;15.90;5.50;;;;;;;;;;106584;1250;62065;-77
2024/03/17 06:41:05;;;;;;;11.20;5.40;;;;;;;;;;106558;1253;62133;-76
2024/03/17 06:43:31;;;;;;;10.60;6.10;;;;;;;;;;106620;1250;62024;-76
2024/03/17 06:45:57;;;;;;;9.30;4.30;;;;;;;;;;106567;1249;62157;-77
2024/03/17 06:48:24;;;;;;;11.50;4.90;;;;;;;;;;106635;1250;62074;-77
2024/03/17 06:50:52;;;;;;;10.00;5.70;;;;;;;;;;106564;1254;62009;-76
2024/03/17 06:53:19;;;;;;;14.20;5.70;;;;;;;;;;106552;1253;62111;-76
2024/03/17 06:55:54;;;;;;;13.80;5.60;;;;;;;;;;109640;1249;59998;-78
2024/03/17 06:58:22;;;;;;;12.10;5.10;;;;;;;;;;109654;1249;59639;-79
2024/03/17 07:00:59;;;;;;;17.70;6.20;;;;;;;;;;109624;1249;59885;-77
2024/03/17 07:03:25;;;;;;;15.50;4.40;;;;;;;;;;109660;1249;59705;-78
2024/03/17 07:05:55;;;;;;;11.30;6.20;;;;;;;;;;109648;1250;63623;-77
2024/03/17 07:08:21;;;;;;;10.30;5.40;;;;;;;;;;109683;1249;59946;-77
2024/03/17 07:11:02;;;;;;;13.10;5.40;;;;;;;;;;109642;1249;59841;-77
2024/03/17 07:13:29;;;;;;;9.60;5.30;;;;;;;;;;109641;1250;59869;-76
2024/03/17 07:15:56;;;;;;;8.20;4.30;;;;;;;;;;109673;1249;59877;-77
2024/03/17 07:18:22;;;;;;;9.70;4.90;;;;;;;;;;109673;1249;59968;-77
2024/03/17 07:20:48;;;;;;;13.50;5.60;;;;;;;;;;109659;1249;59669;-77
2024/03/17 07:23:15;;;;;;;9.90;5.90;;;;;;;;;;109600;1249;59709;-78
2024/03/17 07:25:42;;;;;;;7.80;4.50;;;;;;;;;;109658;1249;59716;-78
2024/03/17 07:28:09;;;;;;;5.50;3.10;;;;;;;;;;109657;1249;59624;-78
2024/03/17 07:30:35;;;;;;;8.70;3.00;;;;;;;;;;109663;1249;63933;-77
2024/03/17 07:33:02;;;;;;;7.60;3.20;;;;;;;;;;109644;1249;59698;-78
2024/03/17 07:35:28;;;;;;;7.70;3.20;;;;;;;;;;109646;1249;59776;-79
2024/03/17 07:37:54;;;;;;;9.60;3.70;;;;;;;;;;109637;1250;59575;-79
2024/03/17 07:40:21;;;;;;;8.20;4.60;;;;;;;;;;109682;1250;59948;-79
2024/03/17 07:42:47;;;;;;;7.40;4.40;;;;;;;;;;109663;1249;59658;-79
2024/03/17 07:45:13;;;;;;;9.20;4.60;;;;;;;;;;109670;1249;59827;-79
2024/03/17 07:47:39;;;;;;;9.50;3.90;;;;;;;;;;109643;1250;60028;-79
2024/03/17 07:50:06;;;;;;;5.80;3.60;;;;;;;;;;109622;1250;59682;-78
2024/03/17 07:52:32;;;;;;;5.40;3.20;;;;;;;;;;109678;1250;59819;-78
2024/03/17 07:54:59;;;;;;;8.20;3.80;;;;;;;;;;109684;1249;59837;-79
2024/03/17 07:57:25;;;;;;;5.60;3.30;;;;;;;;;;109680;1250;59807;-78
2024/03/17 07:59:52;;;;;;;6.70;3.60;;;;;;;;;;109632;1250;59690;-78
2024/03/17 08:02:18;;;;;;;8.90;3.20;;;;;;;;;;109663;1251;59862;-80
2024/03/17 08:04:44;;;;;;;8.00;4.80;;;;;;;;;;109654;1250;59688;-77
2024/03/17 08:07:11;;;;;;;9.80;3.20;;;;;;;;;;108868;1250;59693;-77
2024/03/17 08:09:37;;;;;;;4.80;2.30;;;;;;;;;;106584;1250;61927;-77
2024/03/17 08:12:04;;;;;;;9.10;3.40;;;;;;;;;;106554;1250;62113;-79
2024/03/17 08:14:30;;;;;;;5.80;3.70;;;;;;;;;;106642;1251;62161;-79
2024/03/17 08:16:57;;;;;;;9.60;4.90;;;;;;;;;;106643;1250;62128;-79
2024/03/17 08:19:23;;;;;;;35.80;23.00;;;;;;;;;;106617;1250;62124;-79
2024/03/17 08:21:49;;;;;;;55.90;41.60;;;;;;;;;;106577;1250;61992;-77
2024/03/17 08:24:15;;;;;;;3.70;2.80;;;;;;;;;;106590;1254;62135;-77
2024/03/17 08:26:42;;;;;;;3.40;2.20;;;;;;;;;;106595;1250;62144;-79
2024/03/17 08:29:08;;;;;;;12.80;8.50;;;;;;;;;;106582;1250;62165;-77
2024/03/17 08:31:34;;;;;;;11.30;6.00;;;;;;;;;;106568;1250;62191;-77
2024/03/17 08:34:00;;;;;;;48.70;31.20;;;;;;;;;;106598;1250;62498;-77
2024/03/17 08:36:28;;;;;;;13.80;8.80;;;;;;;;;;106591;1254;63201;-77
2024/03/17 08:38:55;;;;;;;11.10;6.00;;;;;;;;;;106627;1250;61896;-77
2024/03/17 08:41:21;;;;;;;7.00;3.90;;;;;;;;;;106601;1250;62043;-79
2024/03/17 08:43:47;;;;;;;10.30;5.30;;;;;;;;;;106624;1250;61949;-79
2024/03/17 08:46:13;;;;;;;8.80;2.70;;;;;;;;;;106594;1250;62063;-78
2024/03/17 08:48:40;;;;;;;8.80;5.30;;;;;;;;;;106553;1254;62110;-76
2024/03/17 08:51:07;;;;;;;8.30;3.50;;;;;;;;;;106623;1250;62072;-77
2024/03/17 08:53:33;;;;;;;8.30;3.30;;;;;;;;;;106507;1250;62157;-76
2024/03/17 08:56:00;;;;;;;39.30;27.20;;;;;;;;;;106611;1253;62156;-76
2024/03/17 08:58:26;;;;;;;31.40;22.20;;;;;;;;;;106539;1253;62132;-78
2024/03/17 09:00:52;;;;;;;10.00;5.20;;;;;;;;;;106525;1256;62804;-78
2024/03/17 09:03:19;;;;;;;10.00;7.00;;;;;;;;;;106545;1253;62119;-78
2024/03/17 09:05:46;;;;;;;11.20;6.80;;;;;;;;;;106550;1250;62039;-78
2024/03/17 09:08:17;;;;;;;12.50;5.10;;;;;;;;;;106582;1253;62076;-76
2024/03/17 09:10:44;;;;;;;7.40;2.90;;;;;;;;;;106474;1256;62919;-78
2024/03/17 09:13:13;;;;;;;5.10;3.60;;;;;;;;;;106608;1251;64112;-78
2024/03/17 09:15:40;;;;;;;5.20;2.80;;;;;;;;;;106622;1255;61956;-76
2024/03/17 09:18:06;;;;;;;6.40;2.70;;;;;;;;;;106630;1250;61971;-76
2024/03/17 09:20:32;;;;;;;7.50;3.30;;;;;;;;;;106574;1250;62137;-76
2024/03/17 09:22:58;;;;;;;10.20;4.10;;;;;;;;;;106571;1250;62572;-79
2024/03/17 09:25:25;;;;;;;7.50;4.80;;;;;;;;;;106569;1250;62151;-78
2024/03/17 09:27:51;;;;;;;8.20;3.40;;;;;;;;;;106638;1251;62029;-78
2024/03/17 09:30:17;;;;;;;8.50;3.20;;;;;;;;;;107355;1250;61925;-78
2024/03/17 09:32:44;;;;;;;4.80;3.00;;;;;;;;;;107336;1251;62114;-78
2024/03/17 09:35:10;;;;;;;10.90;4.90;;;;;;;;;;107294;1250;62025;-76
2024/03/17 09:37:37;;;;;;;8.30;3.30;;;;;;;;;;106771;1254;62129;-76
2024/03/17 09:40:06;;;;;;;12.90;6.30;;;;;;;;;;106660;1251;63235;-77
2024/03/17 09:42:35;;;;;;;13.60;6.60;;;;;;;;;;107259;1250;62064;-80
2024/03/17 09:45:01;;;;;;;7.30;2.70;;;;;;;;;;106992;1253;62025;-79
2024/03/17 09:47:27;;;;;;;59.60;37.70;;;;;;;;;;106624;1251;62073;-78
2024/03/17 09:49:54;;;;;;;26.30;15.20;;;;;;;;;;106612;1250;62216;-80
2024/03/17 09:52:22;;;;;;;14.70;10.00;;;;;;;;;;106610;1250;62141;-79
2024/03/17 09:55:01;;;;;;;19.00;11.60;;;;;;;;;;106559;1253;62722;-80
2024/03/17 09:57:27;;;;;;;12.00;10.10;;;;;;;;;;109681;1249;59970;-77
2024/03/17 09:59:54;;;;;;;9.20;4.90;;;;;;;;;;109656;1250;59596;-78
2024/03/17 10:02:21;;;;;;;6.70;2.80;;;;;;;;;;109625;1249;59718;-76
2024/03/17 10:04:47;;;;;;;6.90;2.90;;;;;;;;;;109652;1250;59687;-78
2024/03/17 10:07:16;;;;;;;8.60;3.90;;;;;;;;;;109641;1250;60351;-77
2024/03/17 10:09:44;;;;;;;5.10;3.10;;;;;;;;;;109679;1250;60169;-77
2024/03/17 10:12:28;;;;;;;9.00;3.40;;;;;;;;;;109666;1250;59867;-77
2024/03/17 10:15:01;;;;;;;4.90;2.00;;;;;;;;;;109629;1249;59671;-76
2024/03/17 10:17:34;;;;;;;6.30;1.90;;;;;;;;;;107691;1250;62151;-77
2024/03/17 10:20:20;;;;;;;6.30;2.50;;;;;;;;;;106575;1250;61578;-76
2024/03/17 10:22:56;;;;;;;4.10;1.90;;;;;;;;;;106582;1253;62246;-76
2024/03/17 10:25:23;;;;;;;6.00;2.80;;;;;;;;;;106539;1250;62068;-78
2024/03/17 10:27:49;;;;;;;9.30;2.40;;;;;;;;;;106509;1251;61946;-79
2024/03/17 10:30:19;;;;;;;5.80;2.30;;;;;;;;;;106589;1251;62121;-79
2024/03/17 10:32:45;;;;;;;4.90;2.20;;;;;;;;;;106547;1250;62695;-78
2024/03/17 10:35:31;;;;;;;8.50;2.30;;;;;;;;;;106622;1250;62147;-76
2024/03/17 10:37:58;;;;;;;5.60;2.60;;;;;;;;;;106585;1253;62156;-78
2024/03/17 10:40:24;;;;;;;3.30;1.70;;;;;;;;;;106595;1253;61904;-78
2024/03/17 10:42:51;;;;;;;7.70;1.50;;;;;;;;;;106648;1250;62212;-79
2024/03/17 10:45:17;;;;;;;5.40;2.10;;;;;;;;;;106652;1254;62055;-79
2024/03/17 10:47:46;;;;;;;5.60;1.70;;;;;;;;;;106673;1250;62233;-79
2024/03/17 10:50:15;;;;;;;3.90;2.00;;;;;;;;;;106616;1250;61945;-79
2024/03/17 10:52:41;;;;;;;6.50;4.00;;;;;;;;;;106673;1256;62038;-80
2024/03/17 10:55:08;;;;;;;6.30;3.50;;;;;;;;;;106691;1250;62186;-78
2024/03/17 10:57:39;;;;;;;6.00;4.40;;;;;;;;;;106589;1253;62283;-79
2024/03/17 11:00:08;;;;;;;7.30;4.90;;;;;;;;;;106617;1254;62022;-78
2024/03/17 11:02:38;;;;;;;5.00;2.20;;;;;;;;;;106508;1256;62169;-77
2024/03/17 11:05:12;;;;;;;5.40;2.10;;;;;;;;;;106594;1250;62024;-76
2024/03/17 11:07:43;;;;;;;4.00;1.80;;;;;;;;;;106566;1253;62050;-76
2024/03/17 11:10:11;;;;;;;4.90;2.00;;;;;;;;;;106548;1251;62766;-77
2024/03/17 11:12:39;;;;;;;3.60;1.60;;;;;;;;;;106626;1250;62153;-78
2024/03/17 11:15:18;;;;;;;3.20;2.20;;;;;;;;;;108681;1250;60820;-78
2024/03/17 11:17:45;;;;;;;6.30;1.90;;;;;;;;;;107556;1251;62247;-76
2024/03/17 11:20:15;;;;;;;4.10;1.60;;;;;;;;;;106637;1256;62121;-77
2024/03/17 11:22:41;;;;;;;8.60;2.00;;;;;;;;;;106667;1254;62802;-76
2024/03/17 11:25:26;;;;;;;3.50;1.50;;;;;;;;;;109690;1250;59709;-76
2024/03/17 11:27:58;;;;;;;4.30;1.20;;;;;;;;;;109658;1249;59883;-76
2024/03/17 11:33:28;;;;;;;9.20;3.10;;;;;;;;;;109683;1249;59674;-78
2024/03/17 11:36:13;;;;;;;5.00;1.90;;;;;;;;;;109585;1251;62841;-76
2024/03/17 11:38:53;;;;;;;4.00;2.10;;;;;;;;;;109595;1251;59781;-77
2024/03/17 11:41:34;;;;;;;6.20;1.70;;;;;;;;;;109584;1251;59972;-76
2024/03/17 11:44:27;;;;;;;5.60;1.60;;;;;;;;;;109539;1250;59682;-76
2024/03/17 11:46:54;;;;;;;3.80;1.60;;;;;;;;;;106549;1251;60200;-76
2024/03/17 11:49:22;;;;;;;5.10;1.90;;;;;;;;;;106525;1251;62036;-76
2024/03/17 11:51:49;;;;;;;31.70;11.10;;;;;;;;;;106536;1253;62067;-77
2024/03/17 11:54:18;;;;;;;4.40;2.10;;;;;;;;;;106531;1251;62035;-76
2024/03/17 11:56:46;;;;;;;7.40;2.90;;;;;;;;;;106546;1253;62012;-77
2024/03/17 11:59:12;;;;;;;5.60;2.20;;;;;;;;;;106643;1256;62001;-76
2024/03/17 12:01:39;;;;;;;2.80;2.00;;;;;;;;;;106595;1250;62073;-77
2024/03/17 12:04:05;;;;;;;8.70;2.00;;;;;;;;;;106603;1250;62026;-77
2024/03/17 12:06:32;;;;;;;3.80;1.20;;;;;;;;;;106616;1254;62027;-77
2024/03/17 12:09:11;;;;;;;5.60;2.00;;;;;;;;;;106582;1251;62077;-77
2024/03/17 12:11:37;;;;;;;8.60;2.60;;;;;;;;;;106599;1250;62090;-76
2024/03/17 12:14:12;;;;;;;4.30;2.70;;;;;;;;;;106594;1250;62100;-76
2024/03/17 12:16:40;;;;;;;8.10;2.90;;;;;;;;;;106615;1256;62003;-77
2024/03/17 12:19:07;;;;;;;4.60;2.40;;;;;;;;;;106586;1253;60180;-76
2024/03/17 12:21:35;;;;;;;4.50;2.10;;;;;;;;;;106626;1251;62553;-76
2024/03/17 12:24:02;;;;;;;5.30;2.90;;;;;;;;;;106620;1253;60095;-78
2024/03/17 12:26:29;;;;;;;7.60;2.50;;;;;;;;;;106537;1256;63693;-76
2024/03/17 12:28:55;;;;;;;8.80;2.50;;;;;;;;;;106576;1254;62038;-77
2024/03/17 12:31:22;;;;;;;5.30;2.60;;;;;;;;;;106574;1255;62070;-76
2024/03/17 12:33:48;;;;;;;10.00;2.70;;;;;;;;;;106615;1251;62236;-76
2024/03/17 12:36:14;;;;;;;4.30;2.10;;;;;;;;;;106591;1250;62150;-78
2024/03/17 12:38:41;;;;;;;4.60;2.10;;;;;;;;;;106598;1251;62484;-77
2024/03/17 12:41:16;;;;;;;2.70;1.70;;;;;;;;;;106585;1254;61959;-77
2024/03/17 12:43:49;;;;;;;5.60;2.10;;;;;;;;;;109620;1250;59840;-77
2024/03/17 12:46:15;;;;;;;10.20;2.50;;;;;;;;;;109646;1250;59669;-77
2024/03/17 12:48:41;;;;;;;9.70;4.10;;;;;;;;;;109700;1249;59653;-76
2024/03/17 12:51:13;;;;;;;5.30;1.90;;;;;;;;;;108825;1250;59804;-76
2024/03/17 12:53:39;;;;;;;5.70;1.90;;;;;;;;;;106597;1253;62722;-76
2024/03/17 13:01:37;;;;;;;6.70;2.20;;;;;;;;;;106566;1250;62020;-77
2024/03/17 13:04:09;;;;;;;5.60;2.00;;;;;;;;;;106613;1250;62173;-77
2024/03/17 13:06:35;;;;;;;4.10;1.80;;;;;;;;;;106587;1254;61512;-76
2024/03/17 13:09:02;;;;;;;4.10;2.30;;;;;;;;;;106592;1254;62152;-76
2024/03/17 13:11:29;;;;;;;6.50;2.20;;;;;;;;;;106633;1250;62144;-77
2024/03/17 13:13:56;;;;;;;4.90;2.80;;;;;;;;;;107008;1250;61944;-76
2024/03/17 13:16:22;;;;;;;5.00;2.30;;;;;;;;;;107271;1250;62044;-76
2024/03/17 13:18:48;;;;;;;2.80;1.30;;;;;;;;;;106672;1256;62080;-76
2024/03/17 13:21:15;;;;;;;2.70;1.80;;;;;;;;;;106728;1250;62230;-77
2024/03/17 13:23:41;;;;;;;3.20;1.90;;;;;;;;;;106664;1254;62029;-77
2024/03/17 13:26:08;;;;;;;3.10;1.30;;;;;;;;;;106670;1254;63137;-76
2024/03/17 13:28:34;;;;;;;5.50;1.50;;;;;;;;;;106694;1254;61843;-76
2024/03/17 13:31:01;;;;;;;4.00;1.60;;;;;;;;;;106750;1249;62031;-77
2024/03/17 13:33:29;;;;;;;3.10;1.80;;;;;;;;;;107141;1255;62062;-78
2024/03/17 13:35:55;;;;;;;6.80;2.10;;;;;;;;;;106596;1253;61985;-77
2024/03/17 13:38:21;;;;;;;3.50;1.30;;;;;;;;;;106584;1250;61875;-77
2024/03/17 13:40:48;;;;;;;4.10;1.80;;;;;;;;;;106612;1250;62077;-78
2024/03/17 13:43:14;;;;;;;5.50;2.70;;;;;;;;;;106602;1250;62118;-78
2024/03/17 13:45:41;;;;;;;2.40;1.30;;;;;;;;;;106572;1250;62486;-77
2024/03/17 13:48:10;;;;;;;7.80;2.60;;;;;;;;;;109639;1254;59671;-77
2024/03/17 13:50:41;;;;;;;6.20;1.40;;;;;;;;;;109663;1250;59661;-77
2024/03/17 13:53:08;;;;;;;5.40;2.30;;;;;;;;;;108614;1250;63833;-78
2024/03/17 13:55:35;;;;;;;9.40;4.30;;;;;;;;;;106627;1254;62237;-76
2024/03/17 13:58:01;;;;;;;6.50;3.30;;;;;;;;;;106562;1255;62160;-76
2024/03/17 14:00:28;;;;;;;4.20;2.30;;;;;;;;;;106637;1254;62021;-77
2024/03/17 14:02:54;;;;;;;6.30;1.80;;;;;;;;;;106632;1254;62056;-77
2024/03/17 14:05:21;;;;;;;7.40;4.70;;;;;;;;;;106589;1254;62417;-76
2024/03/17 14:07:47;;;;;;;2.90;1.70;;;;;;;;;;106620;1254;62124;-76
2024/03/17 14:10:17;;;;;;;4.90;2.10;;;;;;;;;;106602;1250;62141;-78
2024/03/17 14:12:43;;;;;;;5.10;2.30;;;;;;;;;;106607;1254;62035;-78
2024/03/17 14:15:11;;;;;;;5.40;1.60;;;;;;;;;;106540;1257;61977;-77
2024/03/17 14:17:38;;;;;;;4.10;1.70;;;;;;;;;;106608;1250;62754;-78
2024/03/17 14:20:06;;;;;;;5.50;1.70;;;;;;;;;;106612;1254;62082;-76
2024/03/17 14:22:32;;;;;;;6.50;2.00;;;;;;;;;;109490;1250;61951;-76
2024/03/17 14:24:58;;;;;;;4.80;2.00;;;;;;;;;;106608;1256;62039;-78
2024/03/17 14:27:27;;;;;;;7.70;3.70;;;;;;;;;;106607;1250;62093;-76
2024/03/17 14:29:53;;;;;;;9.60;2.70;;;;;;;;;;106617;1251;61976;-76
2024/03/17 14:32:20;;;;;;;4.50;2.60;;;;;;;;;;106635;1250;62159;-77
2024/03/17 14:34:46;;;;;;;5.60;2.10;;;;;;;;;;106580;1250;62074;-77
2024/03/17 14:37:14;;;;;;;6.00;2.10;;;;;;;;;;106571;1255;62037;-78